Time;durP1;ratioP1;P1;durP2;ratioP2;P2;SDS_P1;SDS_P2;PMS_P1;PMS_P2;Temp;Humidity;BMP_temperature;BMP_pressure;BME280_temperature;BME280_humidity;BME280_pressure;Samples;Min_cycle;Max_cycle;Signal;HPM_P1;HPM_P2
2022/09/06 00:00:53;;;;;;;0.00;0.00;;;;;;;19.32;84.18;101540.97;4963796;28;20026;-67
2022/09/06 00:03:18;;;;;;;0.00;0.00;;;;;;;19.30;85.48;101536.66;4964196;28;20053;-67
2022/09/06 00:05:43;;;;;;;0.00;0.00;;;;;;;19.33;84.82;101536.34;4960939;28;20042;-67
2022/09/06 00:08:09;;;;;;;0.00;0.00;;;;;;;19.13;85.09;101494.88;4960599;28;20440;-67
2022/09/06 00:10:34;;;;;;;0.00;0.00;;;;;;;19.36;84.19;101529.72;4960780;28;20031;-67
2022/09/06 00:13:04;;;;;;;0.00;0.00;;;;;;;19.32;84.42;101519.19;4964212;28;20062;-67
2022/09/06 00:15:29;;;;;;;0.00;0.00;;;;;;;19.39;83.29;101523.97;4966283;28;20033;-67
2022/09/06 00:17:57;;;;;;;0.00;0.00;;;;;;;19.45;82.93;101526.91;4958315;28;20031;-67
2022/09/06 00:20:26;;;;;;;0.00;0.00;;;;;;;19.48;82.64;101521.13;4961391;28;20069;-67
2022/09/06 00:22:51;;;;;;;0.00;0.00;;;;;;;19.42;82.95;101523.63;4964314;28;20042;-67
2022/09/06 00:25:16;;;;;;;0.20;0.00;;;;;;;19.33;83.34;101515.41;4966709;28;20031;-67
2022/09/06 00:27:42;;;;;;;0.00;0.00;;;;;;;19.41;83.43;101511.03;4962649;28;20039;-67
2022/09/06 00:30:08;;;;;;;0.00;0.00;;;;;;;19.40;83.55;101514.78;4969101;28;20077;-67
2022/09/06 00:32:33;;;;;;;0.00;0.00;;;;;;;19.48;82.77;101514.84;4966604;28;20034;-67
2022/09/06 00:34:58;;;;;;;0.00;0.00;;;;;;;19.51;82.86;101519.09;4964985;28;20030;-67
2022/09/06 00:37:24;;;;;;;0.00;0.00;;;;;;;19.45;82.44;101518.75;4953209;28;20105;-66
2022/09/06 00:39:49;;;;;;;0.00;0.00;;;;;;;19.43;82.95;101520.78;4959140;28;20027;-67
2022/09/06 00:42:14;;;;;;;0.00;0.00;;;;;;;19.33;84.23;101529.03;4961373;28;20125;-66
2022/09/06 00:44:40;;;;;;;0.00;0.00;;;;;;;19.26;83.64;101532.56;4960714;28;20300;-66
2022/09/06 00:47:05;;;;;;;0.00;0.00;;;;;;;19.06;87.78;101565.44;4963594;28;20448;-66
2022/09/06 00:49:40;;;;;;;0.00;0.00;;;;;;;18.71;89.10;101614.22;4962594;28;20037;-66
2022/09/06 00:52:08;;;;;;;0.00;0.00;;;;;;;18.55;90.85;101663.84;4974704;28;20062;-66
2022/09/06 00:54:34;;;;;;;0.00;0.00;;;;;;;18.46;93.40;101672.91;4960444;28;20029;-70
2022/09/06 00:56:59;;;;;;;0.00;0.00;;;;;;;18.22;95.46;101633.56;4962687;28;20026;-70
2022/09/06 00:59:26;;;;;;;0.00;0.00;;;;;;;18.32;94.26;101651.69;4974446;28;20063;-67
2022/09/06 01:12:13;;;;;;;0.00;0.00;;;;;;;18.04;100.00;101646.22;4963588;28;20117;-67
2022/09/06 01:15:16;;;;;;;0.00;0.00;;;;;;;18.09;100.00;101639.34;4962829;28;20038;-67
2022/09/06 01:17:50;;;;;;;0.00;0.00;;;;;;;18.10;100.00;101637.50;4963442;28;20031;-67
2022/09/06 01:20:43;;;;;;;0.00;0.00;;;;;;;18.07;100.00;101635.06;4962767;28;20035;-66
2022/09/06 01:23:49;;;;;;;0.00;0.00;;;;;;;18.10;100.00;101624.75;4959286;28;20031;-67
2022/09/06 01:26:50;;;;;;;0.00;0.00;;;;;;;18.14;100.00;101626.16;4979198;28;20037;-67
2022/09/06 01:29:25;;;;;;;0.00;0.00;;;;;;;18.12;100.00;101622.72;4960803;28;20030;-70
2022/09/06 01:31:55;;;;;;;0.00;0.00;;;;;;;17.94;100.00;101629.94;4965798;28;20060;-67
2022/09/06 01:34:28;;;;;;;0.00;0.00;;;;;;;17.84;100.00;101617.25;4978392;28;20555;-70
2022/09/06 01:36:57;;;;;;;0.00;0.00;;;;;;;17.91;100.00;101595.75;4961945;28;20472;-70
2022/09/06 01:39:26;;;;;;;0.00;0.00;;;;;;;17.89;100.00;101586.91;4980114;28;20034;-70
2022/09/06 01:41:53;;;;;;;0.00;0.00;;;;;;;17.86;100.00;101589.94;4962644;28;20030;-70
2022/09/06 01:44:19;;;;;;;0.00;0.00;;;;;;;17.82;100.00;101583.09;4962207;28;20800;-70
2022/09/06 01:46:53;;;;;;;0.00;0.00;;;;;;;17.77;100.00;101588.09;4972172;28;20031;-70
2022/09/06 01:49:48;;;;;;;0.00;0.00;;;;;;;17.89;100.00;101569.75;4973527;28;20034;-70
2022/09/06 01:52:27;;;;;;;0.00;0.00;;;;;;;17.91;100.00;101559.59;4978887;28;20031;-70
2022/09/06 01:55:27;;;;;;;0.00;0.00;;;;;;;17.97;100.00;101537.28;4966014;28;20065;-70
2022/09/06 01:58:19;;;;;;;0.00;0.00;;;;;;;17.83;100.00;101542.19;4963781;28;20108;-70
2022/09/06 02:00:55;;;;;;;0.00;0.00;;;;;;;17.81;100.00;101525.19;4962138;28;20475;-70
2022/09/06 02:03:28;;;;;;;0.00;0.00;;;;;;;17.91;100.00;101508.00;4963793;28;20035;-70
2022/09/06 02:05:58;;;;;;;0.00;0.00;;;;;;;17.73;100.00;101459.06;4961742;28;20035;-70
2022/09/06 02:08:33;;;;;;;0.00;0.00;;;;;;;17.69;100.00;101447.66;4975349;28;20041;-70
2022/09/06 02:11:04;;;;;;;0.00;0.00;;;;;;;17.68;100.00;101456.81;4973700;28;20027;-70
2022/09/06 02:13:34;;;;;;;0.00;0.00;;;;;;;17.60;100.00;101438.56;4967508;28;20069;-67
2022/09/06 02:32:56;;;;;;;0.00;0.00;;;;;;;17.48;100.00;101401.75;4969357;28;20570;-69
2022/09/06 02:35:22;;;;;;;;;;;;;;;17.54;100.00;101406.59;4977774;28;20038;-69
2022/09/06 02:37:48;;;;;;;0.35;0.00;;;;;;;17.59;100.00;101406.13;4965840;28;19946;-69
2022/09/06 02:40:13;;;;;;;0.00;0.00;;;;;;;17.64;100.00;101403.81;4964039;28;20106;-69
2022/09/06 02:42:39;;;;;;;0.00;0.00;;;;;;;17.62;100.00;101400.38;4957910;28;20039;-69
2022/09/06 02:45:04;;;;;;;0.00;0.00;;;;;;;17.58;100.00;101393.53;4960087;28;20031;-69
2022/09/06 02:47:30;;;;;;;0.00;0.00;;;;;;;17.64;100.00;101395.66;4959695;28;20489;-69
2022/09/06 02:49:55;;;;;;;0.00;0.00;;;;;;;17.68;100.00;101397.91;4959940;28;20035;-69
2022/09/06 02:52:20;;;;;;;0.00;0.00;;;;;;;17.72;100.00;101392.16;4976409;28;20110;-69
2022/09/06 02:54:46;;;;;;;0.00;0.00;;;;;;;17.74;100.00;101392.88;4959410;28;20496;-69
2022/09/06 02:57:11;;;;;;;0.00;0.00;;;;;;;17.77;100.00;101392.56;4965119;28;20029;-69
2022/09/06 02:59:36;;;;;;;0.00;0.00;;;;;;;17.78;100.00;101399.72;4960851;28;20038;-69
2022/09/06 03:02:02;;;;;;;0.00;0.00;;;;;;;17.76;100.00;101399.84;4963551;28;20103;-69
2022/09/06 03:04:27;;;;;;;0.00;0.00;;;;;;;17.78;100.00;101411.41;4964811;28;20065;-69
2022/09/06 03:06:52;;;;;;;0.00;0.00;;;;;;;17.65;100.00;101430.78;4964198;28;20045;-69
2022/09/06 03:09:18;;;;;;;0.00;0.00;;;;;;;17.69;100.00;101434.91;4962405;28;20026;-69
2022/09/06 03:11:43;;;;;;;0.00;0.00;;;;;;;17.57;100.00;101447.00;4963851;28;20030;-68
2022/09/06 03:14:08;;;;;;;0.00;0.00;;;;;;;17.42;100.00;101440.34;4960738;28;20471;-69
2022/09/06 03:16:34;;;;;;;0.00;0.00;;;;;;;17.41;100.00;101442.22;4968680;28;20081;-69
2022/09/06 03:18:59;;;;;;;0.00;0.00;;;;;;;17.29;100.00;101448.84;4960723;28;20039;-69
2022/09/06 03:21:25;;;;;;;0.00;0.00;;;;;;;17.11;100.00;101424.34;4963320;28;20030;-69
2022/09/06 03:23:50;;;;;;;0.00;0.00;;;;;;;17.23;100.00;101448.41;4959733;28;20046;-69
2022/09/06 03:26:15;;;;;;;0.00;0.00;;;;;;;17.30;100.00;101442.41;4957434;28;20038;-66
2022/09/06 03:28:41;;;;;;;0.00;0.00;;;;;;;17.31;100.00;101444.13;4957423;28;20034;-69
2022/09/06 03:31:07;;;;;;;0.00;0.00;;;;;;;17.36;100.00;101456.22;4959821;28;20444;-69
2022/09/06 03:33:32;;;;;;;0.00;0.00;;;;;;;17.34;100.00;101447.41;4958506;28;20027;-69
2022/09/06 03:36:00;;;;;;;0.00;0.00;;;;;;;17.35;100.00;101450.97;4958014;28;20054;-68
2022/09/06 03:38:26;;;;;;;0.00;0.00;;;;;;;17.21;100.00;101455.88;4958587;28;20048;-69
2022/09/06 03:40:52;;;;;;;0.00;0.00;;;;;;;17.12;100.00;101445.91;4956955;28;20022;-69
2022/09/06 03:43:18;;;;;;;0.00;0.00;;;;;;;17.14;100.00;101443.03;4961089;28;20031;-69
2022/09/06 03:45:48;;;;;;;0.00;0.00;;;;;;;17.18;100.00;101430.88;4963536;28;20470;-69
2022/09/06 03:48:14;;;;;;;0.00;0.00;;;;;;;17.05;100.00;101399.53;4961256;28;20034;-69
2022/09/06 03:50:43;;;;;;;0.00;0.00;;;;;;;17.34;100.00;101427.53;4959093;28;20053;-69
2022/09/06 03:53:09;;;;;;;0.00;0.00;;;;;;;17.34;100.00;101431.13;4962157;28;20030;-69
2022/09/06 03:55:34;;;;;;;0.00;0.00;;;;;;;17.37;100.00;101433.50;4957023;28;20035;-69
2022/09/06 03:57:59;;;;;;;0.00;0.00;;;;;;;17.36;100.00;101434.50;4956722;28;20027;-69
2022/09/06 04:00:25;;;;;;;0.00;0.00;;;;;;;17.30;100.00;101429.69;4959727;28;20085;-69
2022/09/06 04:02:50;;;;;;;0.00;0.00;;;;;;;17.20;100.00;101427.03;4960801;28;20026;-69
2022/09/06 04:05:16;;;;;;;0.00;0.00;;;;;;;17.14;100.00;101424.91;4974218;28;20042;-69
2022/09/06 04:07:42;;;;;;;0.00;0.00;;;;;;;17.01;100.00;101421.66;4957909;28;20480;-69
2022/09/06 04:10:07;;;;;;;0.00;0.00;;;;;;;16.91;100.00;101424.38;4962020;28;20042;-69
2022/09/06 04:12:33;;;;;;;0.00;0.00;;;;;;;16.76;100.00;101422.13;4966159;28;20069;-69
2022/09/06 04:14:59;;;;;;;0.00;0.00;;;;;;;16.68;100.00;101423.88;4981685;28;20585;-69
2022/09/06 04:17:24;;;;;;;0.00;0.00;;;;;;;16.60;100.00;101432.69;4967126;28;20034;-69
2022/09/06 04:19:49;;;;;;;0.00;0.00;;;;;;;16.57;100.00;101431.16;4967957;28;20405;-69
2022/09/06 04:22:14;;;;;;;0.00;0.00;;;;;;;16.57;100.00;101430.28;4958941;28;20033;-69
2022/09/06 04:24:40;;;;;;;0.00;0.00;;;;;;;16.58;100.00;101432.88;4963314;28;20041;-69
2022/09/06 04:27:05;;;;;;;0.00;0.00;;;;;;;16.53;100.00;101435.16;4969424;28;20035;-69
2022/09/06 04:29:30;;;;;;;0.00;0.00;;;;;;;16.52;100.00;101440.72;4964301;28;20071;-69
2022/09/06 04:31:56;;;;;;;0.00;0.00;;;;;;;16.44;100.00;101426.03;4967234;28;20468;-69
2022/09/06 04:34:21;;;;;;;0.00;0.00;;;;;;;16.43;100.00;101435.16;4986159;28;20030;-69
2022/09/06 04:36:46;;;;;;;0.10;0.10;;;;;;;16.39;100.00;101432.88;4961630;28;20030;-69
2022/09/06 04:39:11;;;;;;;0.00;0.00;;;;;;;16.32;100.00;101430.75;4960982;28;20058;-69
2022/09/06 04:41:37;;;;;;;0.00;0.00;;;;;;;16.09;100.00;101402.22;4958155;28;20145;-69
2022/09/06 04:44:02;;;;;;;0.05;0.00;;;;;;;16.20;100.00;101445.41;4965233;28;20034;-68
2022/09/06 04:46:29;;;;;;;0.00;0.00;;;;;;;16.04;100.00;101441.41;4961223;28;20520;-69
2022/09/06 04:48:55;;;;;;;0.00;0.00;;;;;;;15.93;100.00;101448.81;4975076;28;20026;-69
2022/09/06 04:51:21;;;;;;;0.00;0.00;;;;;;;15.58;100.00;101438.28;4960669;28;20381;-68
2022/09/06 04:53:46;;;;;;;0.00;0.00;;;;;;;15.52;100.00;101457.78;4976679;28;20043;-68
2022/09/06 04:56:14;;;;;;;0.00;0.00;;;;;;;15.42;100.00;101454.19;4957152;28;20034;-69
2022/09/06 04:58:40;;;;;;;0.00;0.00;;;;;;;15.34;100.00;101451.31;4958572;28;20389;-69
2022/09/06 05:01:06;;;;;;;0.00;0.00;;;;;;;15.18;100.00;101449.09;4973835;28;20045;-69
2022/09/06 05:03:31;;;;;;;0.00;0.00;;;;;;;15.17;100.00;101452.78;4955513;28;20131;-68
2022/09/06 05:06:08;;;;;;;0.10;0.10;;;;;;;15.09;100.00;101454.34;4977325;28;20393;-68
2022/09/06 05:08:37;;;;;;;0.20;0.20;;;;;;;15.12;100.00;101448.63;4978296;28;20147;-65
2022/09/06 05:11:03;;;;;;;0.00;0.00;;;;;;;15.16;100.00;101457.38;4963337;28;20048;-69
2022/09/06 05:13:28;;;;;;;0.00;0.00;;;;;;;15.24;100.00;101464.78;4966713;28;20369;-68
2022/09/06 05:15:54;;;;;;;0.00;0.00;;;;;;;15.29;100.00;101466.09;4962629;28;20023;-68
2022/09/06 05:18:19;;;;;;;0.00;0.00;;;;;;;15.32;100.00;101461.41;4967743;28;20076;-67
2022/09/06 05:20:50;;;;;;;0.10;0.10;;;;;;;15.33;100.00;101464.00;4969259;28;20420;-66
2022/09/06 05:23:15;;;;;;;0.00;0.00;;;;;;;15.32;100.00;101478.50;4969473;28;20403;-67
2022/09/06 05:25:41;;;;;;;0.00;0.00;;;;;;;15.37;100.00;101481.66;4973287;28;20049;-67
2022/09/06 05:28:06;;;;;;;0.10;0.10;;;;;;;15.42;100.00;101481.25;4981293;28;20043;-66
2022/09/06 05:30:31;;;;;;;0.00;0.00;;;;;;;15.43;100.00;101485.69;4978180;28;20030;-67
2022/09/06 05:32:57;;;;;;;0.47;0.47;;;;;;;15.54;100.00;101495.56;4982358;28;20392;-67
2022/09/06 05:35:22;;;;;;;0.00;0.00;;;;;;;15.59;100.00;101494.13;4970100;28;20049;-68
2022/09/06 05:37:47;;;;;;;0.00;0.00;;;;;;;15.67;100.00;101498.03;4971043;28;20038;-68
2022/09/06 05:40:13;;;;;;;0.00;0.00;;;;;;;15.72;100.00;101493.06;4968702;28;20034;-68
2022/09/06 05:42:39;;;;;;;0.00;0.00;;;;;;;15.76;100.00;101499.88;4962402;28;20118;-69
2022/09/06 05:45:05;;;;;;;0.00;0.00;;;;;;;15.83;100.00;101500.22;4975320;28;20504;-69
2022/09/06 05:47:34;;;;;;;0.10;0.10;;;;;;;15.88;100.00;101504.25;4970725;28;20089;-69
2022/09/06 05:49:59;;;;;;;0.00;0.00;;;;;;;15.94;100.00;101510.94;4965429;28;20501;-69
2022/09/06 05:52:24;;;;;;;0.00;0.00;;;;;;;15.97;100.00;101507.13;4962051;28;20023;-68
2022/09/06 05:54:50;;;;;;;0.00;0.00;;;;;;;16.01;100.00;101511.28;4960721;28;20118;-68
2022/09/06 05:57:15;;;;;;;0.00;0.00;;;;;;;16.02;100.00;101505.69;4963634;28;20035;-69
2022/09/06 05:59:40;;;;;;;0.00;0.00;;;;;;;16.11;100.00;101516.72;4965467;28;20041;-69
2022/09/06 06:02:06;;;;;;;0.00;0.00;;;;;;;16.18;100.00;101507.88;4961857;28;20909;-68
2022/09/06 06:04:31;;;;;;;0.00;0.00;;;;;;;16.26;100.00;101509.88;4967007;28;20527;-68
2022/09/06 06:06:56;;;;;;;0.00;0.00;;;;;;;16.31;100.00;101507.59;4966191;28;20034;-68
2022/09/06 06:09:22;;;;;;;0.00;0.00;;;;;;;16.42;100.00;101501.19;4963377;28;20078;-70
2022/09/06 06:11:47;;;;;;;0.00;0.00;;;;;;;16.58;100.00;101507.88;4967853;28;20046;-69
2022/09/06 06:14:12;;;;;;;0.00;0.00;;;;;;;16.64;100.00;101519.03;4963017;28;20030;-69
2022/09/06 06:16:38;;;;;;;0.00;0.00;;;;;;;16.72;100.00;101517.44;4967232;28;20058;-69
2022/09/06 06:19:03;;;;;;;0.00;0.00;;;;;;;16.88;100.00;101508.72;4968711;28;20410;-69
2022/09/06 06:21:31;;;;;;;0.00;0.00;;;;;;;17.06;100.00;101506.16;4966016;28;20106;-69
2022/09/06 06:23:59;;;;;;;0.00;0.00;;;;;;;17.18;100.00;101507.72;4948001;28;20050;-69
2022/09/06 06:26:25;;;;;;;0.00;0.00;;;;;;;17.34;100.00;101504.41;4966455;28;20022;-69
2022/09/06 06:28:51;;;;;;;0.00;0.00;;;;;;;17.41;100.00;101511.91;4967920;28;20030;-69
2022/09/06 06:31:18;;;;;;;0.00;0.00;;;;;;;17.53;100.00;101514.31;4965600;28;20027;-70
2022/09/06 06:33:43;;;;;;;0.00;0.00;;;;;;;17.65;100.00;101511.41;4966407;28;20085;-69
2022/09/06 06:36:12;;;;;;;0.00;0.00;;;;;;;17.79;100.00;101518.22;4960830;28;20027;-69
2022/09/06 06:38:38;;;;;;;0.00;0.00;;;;;;;17.97;100.00;101515.53;4960696;28;20078;-68
2022/09/06 06:41:05;;;;;;;0.00;0.00;;;;;;;18.11;100.00;101514.22;4958717;28;20022;-68
2022/09/06 06:43:37;;;;;;;0.00;0.00;;;;;;;18.12;100.00;101514.03;4957812;28;20066;-68
2022/09/06 06:46:07;;;;;;;0.00;0.00;;;;;;;18.10;100.00;101512.50;4959571;28;20496;-68
2022/09/06 06:48:33;;;;;;;0.00;0.00;;;;;;;18.08;100.00;101503.63;4975911;28;20038;-68
2022/09/06 06:50:58;;;;;;;0.00;0.00;;;;;;;18.10;100.00;101498.91;4958013;28;20029;-68
2022/09/06 06:53:24;;;;;;;0.00;0.00;;;;;;;18.16;100.00;101492.00;4957988;28;20027;-68
2022/09/06 06:55:49;;;;;;;0.00;0.00;;;;;;;18.20;100.00;101493.41;4973796;28;20057;-68
2022/09/06 06:58:15;;;;;;;0.10;0.10;;;;;;;18.28;100.00;101486.19;4964435;28;20045;-68
2022/09/06 07:00:41;;;;;;;0.00;0.00;;;;;;;18.38;100.00;101488.81;4961959;28;20034;-68
2022/09/06 07:03:08;;;;;;;0.00;0.00;;;;;;;18.56;100.00;101480.66;4958657;28;20031;-68
2022/09/06 07:05:33;;;;;;;0.00;0.00;;;;;;;18.62;99.83;101473.72;4965031;28;20027;-68
2022/09/06 07:07:58;;;;;;;0.00;0.00;;;;;;;18.80;98.92;101475.59;4965045;28;20505;-69
2022/09/06 07:10:24;;;;;;;0.00;0.00;;;;;;;18.92;98.07;101489.78;4963054;28;20372;-68
2022/09/06 07:12:50;;;;;;;0.00;0.00;;;;;;;19.01;98.16;101475.25;4958843;28;20050;-68
2022/09/06 07:15:15;;;;;;;0.00;0.00;;;;;;;19.11;97.79;101477.84;4962445;28;20034;-68
2022/09/06 07:17:41;;;;;;;0.00;0.00;;;;;;;19.11;96.20;101475.13;4967156;28;20034;-67
2022/09/06 07:20:06;;;;;;;0.00;0.00;;;;;;;19.21;95.01;101475.88;4961982;28;20051;-67
2022/09/06 07:22:33;;;;;;;0.00;0.00;;;;;;;19.36;95.52;101478.84;4963267;28;20741;-66
2022/09/06 07:24:58;;;;;;;0.10;0.05;;;;;;;19.40;94.85;101482.97;4963175;28;20074;-67
2022/09/06 07:27:23;;;;;;;0.00;0.00;;;;;;;19.57;94.47;101474.88;4961165;28;20059;-67
2022/09/06 07:29:48;;;;;;;0.00;0.00;;;;;;;19.63;92.63;101475.06;4964344;28;20034;-68
2022/09/06 07:32:14;;;;;;;0.00;0.00;;;;;;;19.79;92.50;101463.38;4963085;28;20034;-67
2022/09/06 07:34:39;;;;;;;0.00;0.00;;;;;;;19.92;90.99;101467.53;4961954;28;20038;-68
2022/09/06 07:37:04;;;;;;;0.00;0.00;;;;;;;20.04;91.24;101466.19;4965783;28;20121;-68
2022/09/06 07:39:31;;;;;;;0.00;0.00;;;;;;;20.21;90.94;101474.41;4963149;28;20034;-67
2022/09/06 07:41:57;;;;;;;0.00;0.00;;;;;;;20.41;89.33;101471.38;4961169;28;20041;-67
2022/09/06 07:44:22;;;;;;;0.00;0.00;;;;;;;20.42;86.84;101473.06;4962453;28;20022;-70
2022/09/06 07:46:47;;;;;;;0.00;0.00;;;;;;;20.59;86.82;101468.47;4966115;28;20035;-69
2022/09/06 07:49:13;;;;;;;0.00;0.00;;;;;;;20.72;87.61;101478.88;4972550;28;20081;-67
2022/09/06 07:51:38;;;;;;;0.00;0.00;;;;;;;20.85;84.74;101471.03;4967596;28;20046;-67
2022/09/06 07:54:04;;;;;;;0.00;0.00;;;;;;;21.00;84.18;101476.66;4963209;28;20037;-68
2022/09/06 07:56:29;;;;;;;0.00;0.00;;;;;;;21.03;83.46;101475.47;4954816;28;20440;-70
2022/09/06 07:58:56;;;;;;;0.00;0.00;;;;;;;21.03;83.21;101443.56;4960650;28;20033;-71
2022/09/06 08:01:33;;;;;;;0.00;0.00;;;;;;;21.24;82.17;101466.69;4957913;28;20514;-75
2022/09/06 08:04:02;;;;;;;0.00;0.00;;;;;;;21.33;79.65;101470.25;4974487;28;20078;-68
2022/09/06 08:06:30;;;;;;;0.00;0.00;;;;;;;21.33;79.82;101470.25;4964930;28;20034;-70
2022/09/06 08:08:56;;;;;;;0.00;0.00;;;;;;;21.61;79.42;101478.91;4969446;28;20413;-70
2022/09/06 08:11:23;;;;;;;0.00;0.00;;;;;;;21.70;76.91;101469.66;4978088;28;20488;-70
2022/09/06 08:13:50;;;;;;;0.00;0.00;;;;;;;21.54;73.91;101453.28;4965144;28;20396;-68
2022/09/06 08:16:15;;;;;;;0.00;0.00;;;;;;;21.61;74.61;101447.94;4983774;28;20033;-71
2022/09/06 08:18:41;;;;;;;0.03;0.03;;;;;;;21.82;76.84;101469.25;4964965;28;20043;-70
2022/09/06 08:21:14;;;;;;;0.00;0.00;;;;;;;22.10;72.80;101466.00;4962495;28;20424;-68
2022/09/06 08:23:43;;;;;;;0.00;0.00;;;;;;;22.13;76.38;101458.28;4961329;28;20034;-69
2022/09/06 08:26:08;;;;;;;0.00;0.00;;;;;;;22.17;73.19;101462.34;4963178;28;20166;-69
2022/09/06 08:28:34;;;;;;;0.00;0.00;;;;;;;22.29;72.70;101451.00;4955824;28;20034;-68
2022/09/06 08:31:26;;;;;;;0.00;0.00;;;;;;;22.51;72.25;101445.72;4961526;28;20436;-68
2022/09/06 08:33:52;;;;;;;0.00;0.00;;;;;;;22.70;72.59;101439.72;4959554;28;20489;-70
2022/09/06 08:36:17;;;;;;;0.00;0.00;;;;;;;22.88;70.58;101446.75;4960177;28;20078;-67
2022/09/06 08:38:44;;;;;;;0.00;0.00;;;;;;;22.76;70.18;101429.94;4960196;28;20034;-70
2022/09/06 08:41:12;;;;;;;0.00;0.00;;;;;;;23.14;69.26;101449.03;4981360;28;20115;-67
2022/09/06 08:43:38;;;;;;;0.00;0.00;;;;;;;23.02;68.78;101440.44;4970056;28;20035;-70
2022/09/06 08:46:05;;;;;;;0.00;0.00;;;;;;;23.10;67.98;101417.59;4969590;28;20038;-69
2022/09/06 08:48:33;;;;;;;0.00;0.00;;;;;;;23.26;66.74;101446.72;4978185;28;20130;-69
2022/09/06 08:51:22;;;;;;;0.00;0.00;;;;;;;23.34;66.07;101430.19;4978337;28;20461;-67
2022/09/06 08:53:47;;;;;;;0.00;0.00;;;;;;;23.62;65.94;101445.06;4961464;28;20088;-68
2022/09/06 08:56:16;;;;;;;0.00;0.00;;;;;;;23.67;65.87;101445.34;4967716;28;20105;-69
2022/09/06 08:59:10;;;;;;;0.00;0.00;;;;;;;23.73;66.27;101435.50;4960883;28;20043;-69
2022/09/06 09:01:44;;;;;;;0.00;0.00;;;;;;;23.95;65.42;101422.69;4964964;28;20229;-67
2022/09/06 09:04:14;;;;;;;0.00;0.00;;;;;;;23.90;64.00;101412.31;4981130;28;20034;-70
2022/09/06 09:06:39;;;;;;;0.00;0.00;;;;;;;23.92;63.42;101428.53;4966777;28;20038;-67
2022/09/06 09:09:06;;;;;;;0.00;0.00;;;;;;;24.01;63.42;101435.66;4983248;28;20477;-71
2022/09/06 09:11:34;;;;;;;0.00;0.00;;;;;;;23.87;64.17;101440.09;4979282;28;20024;-70
2022/09/06 09:14:22;;;;;;;0.00;0.00;;;;;;;23.95;60.36;101439.13;4962137;28;20547;-69
2022/09/06 09:16:51;;;;;;;0.00;0.00;;;;;;;23.96;61.71;101408.78;4965207;28;20030;-71
2022/09/06 09:19:17;;;;;;;0.00;0.00;;;;;;;24.10;60.92;101406.19;4969568;28;20033;-68
2022/09/06 09:21:42;;;;;;;0.00;0.00;;;;;;;24.26;60.55;101422.38;4967534;28;20066;-70
2022/09/06 09:24:12;;;;;;;0.00;0.00;;;;;;;24.18;60.04;101407.97;4967709;28;20066;-70
2022/09/06 09:26:48;;;;;;;0.00;0.00;;;;;;;24.50;61.11;101436.72;4962426;28;20497;-68
2022/09/06 09:29:14;;;;;;;0.00;0.00;;;;;;;24.79;60.54;101410.16;4967460;28;20069;-69
2022/09/06 09:31:42;;;;;;;0.00;0.00;;;;;;;25.22;59.66;101408.34;4959445;28;20443;-70
2022/09/06 09:34:12;;;;;;;0.00;0.00;;;;;;;25.52;57.90;101419.06;4978096;28;20481;-69
2022/09/06 09:36:38;;;;;;;0.00;0.00;;;;;;;25.35;60.12;101426.78;4965997;28;20026;-71
2022/09/06 09:39:10;;;;;;;0.00;0.00;;;;;;;25.42;56.39;101434.00;4965063;28;20037;-71
2022/09/06 09:41:38;;;;;;;0.00;0.00;;;;;;;25.48;58.49;101426.03;4939905;28;20448;-69
2022/09/06 09:44:07;;;;;;;0.00;0.00;;;;;;;25.80;58.55;101427.19;4957250;28;20034;-68
2022/09/06 09:46:35;;;;;;;0.00;0.00;;;;;;;26.12;54.51;101426.63;4960513;28;20149;-69
2022/09/06 09:49:06;;;;;;;0.00;0.00;;;;;;;25.79;54.70;101425.50;4960492;28;20034;-72
2022/09/06 09:51:36;;;;;;;0.00;0.00;;;;;;;25.81;55.65;101423.38;4956045;28;20032;-68
2022/09/06 09:54:05;;;;;;;0.00;0.00;;;;;;;26.13;54.65;101420.97;4954707;28;20745;-70
2022/09/06 09:56:39;;;;;;;0.00;0.00;;;;;;;25.78;54.13;101392.72;4957633;28;20917;-71
2022/09/06 09:59:27;;;;;;;0.00;0.00;;;;;;;25.94;54.25;101427.25;4957534;28;20570;-70
2022/09/06 10:01:58;;;;;;;0.00;0.00;;;;;;;26.02;54.45;101433.41;4957566;28;20380;-70
2022/09/06 10:04:28;;;;;;;0.00;0.00;;;;;;;26.07;54.19;101440.19;4951298;28;20710;-71
2022/09/06 10:07:15;;;;;;;0.00;0.00;;;;;;;26.22;53.77;101429.03;4957832;28;20507;-71
2022/09/06 10:09:43;;;;;;;0.00;0.00;;;;;;;26.25;54.66;101423.06;4959226;28;20045;-71
2022/09/06 10:12:16;;;;;;;0.00;0.00;;;;;;;26.49;54.11;101405.94;4959357;28;20019;-71
2022/09/06 10:14:43;;;;;;;0.00;0.00;;;;;;;26.57;55.10;101426.06;4977615;28;20095;-72
2022/09/06 10:17:22;;;;;;;0.00;0.00;;;;;;;26.22;54.22;101420.78;4964258;28;20046;-71
2022/09/06 10:19:48;;;;;;;0.00;0.00;;;;;;;26.30;55.33;101417.78;4981415;28;20097;-70
2022/09/06 10:22:22;;;;;;;0.00;0.00;;;;;;;26.69;54.51;101421.63;4980160;28;20110;-70
2022/09/06 10:25:04;;;;;;;0.00;0.00;;;;;;;26.69;52.65;101413.34;4963985;28;20027;-71
2022/09/06 10:27:31;;;;;;;0.00;0.00;;;;;;;26.93;53.55;101402.75;4974277;28;20027;-69
2022/09/06 10:30:01;;;;;;;0.00;0.00;;;;;;;27.40;53.19;101405.38;4957698;28;20445;-68
2022/09/06 10:32:29;;;;;;;0.00;0.00;;;;;;;27.87;50.59;101409.81;4955156;28;20023;-70
2022/09/06 10:35:00;;;;;;;0.00;0.00;;;;;;;27.39;50.54;101415.53;4956567;28;20026;-72
2022/09/06 10:37:48;;;;;;;0.00;0.00;;;;;;;27.39;51.53;101398.16;4958997;28;20501;-72
2022/09/06 10:40:40;;;;;;;0.00;0.00;;;;;;;26.84;51.15;101421.41;4974178;28;20528;-72
2022/09/06 10:43:13;;;;;;;0.00;0.00;;;;;;;27.02;51.34;101409.69;4952239;28;20047;-73
2022/09/06 10:45:58;;;;;;;0.00;0.00;;;;;;;27.33;51.81;101419.16;4975080;28;20026;-70
2022/09/06 10:48:30;;;;;;;0.00;0.00;;;;;;;27.62;52.08;101418.88;4973289;28;20283;-67
2022/09/06 10:51:19;;;;;;;0.00;0.00;;;;;;;27.76;50.50;101425.16;4956199;28;20030;-68
2022/09/06 10:53:55;;;;;;;0.00;0.00;;;;;;;27.86;49.03;101419.16;4962540;28;20038;-71
2022/09/06 10:56:39;;;;;;;0.00;0.00;;;;;;;27.42;48.52;101413.41;4971175;28;20465;-72
2022/09/06 10:59:09;;;;;;;0.00;0.00;;;;;;;27.94;50.77;101429.94;4973447;28;20074;-71
2022/09/06 11:01:46;;;;;;;0.00;0.00;;;;;;;28.16;48.86;101400.09;4956202;28;20165;-70
2022/09/06 11:04:20;;;;;;;0.00;0.00;;;;;;;27.63;50.01;101413.13;4953251;28;20378;-72
2022/09/06 11:06:50;;;;;;;0.00;0.00;;;;;;;28.04;49.90;101405.44;4955619;28;20037;-70
2022/09/06 11:09:25;;;;;;;0.00;0.00;;;;;;;28.51;48.92;101402.34;4958341;28;20521;-73
2022/09/06 11:12:06;;;;;;;0.00;0.00;;;;;;;28.80;48.64;101413.81;4953663;28;20023;-69
2022/09/06 11:14:33;;;;;;;0.00;0.00;;;;;;;29.19;46.79;101405.31;4966790;28;20034;-69
2022/09/06 11:17:07;;;;;;;0.00;0.00;;;;;;;28.88;47.00;101418.19;4970918;28;20551;-73
2022/09/06 11:19:39;;;;;;;0.00;0.00;;;;;;;28.41;47.12;101419.44;4957526;28;20480;-75
2022/09/06 11:22:38;;;;;;;0.00;0.00;;;;;;;28.56;48.14;101426.53;4957890;28;20035;-70
2022/09/06 11:25:28;;;;;;;0.00;0.00;;;;;;;28.10;47.67;101426.66;4958587;28;20078;-71
2022/09/06 11:27:55;;;;;;;0.10;0.00;;;;;;;28.27;48.44;101417.84;4958719;28;20504;-74
2022/09/06 11:30:21;;;;;;;0.00;0.00;;;;;;;28.64;48.02;101417.09;4971771;28;20125;-69
2022/09/06 11:33:03;;;;;;;0.00;0.00;;;;;;;28.93;48.60;101428.53;4959056;28;20756;-72
2022/09/06 11:35:31;;;;;;;0.00;0.00;;;;;;;29.37;46.03;101422.97;4970706;28;20058;-68
2022/09/06 11:38:21;;;;;;;0.00;0.00;;;;;;;28.72;45.89;101436.16;4956343;28;20548;-74
2022/09/06 11:40:51;;;;;;;0.00;0.00;;;;;;;29.33;45.82;101431.72;4956335;28;20030;-70
2022/09/06 11:43:41;;;;;;;0.00;0.00;;;;;;;29.82;46.87;101424.53;4957467;28;20038;-72
2022/09/06 11:46:07;;;;;;;0.00;0.00;;;;;;;30.61;43.05;101434.63;4959807;28;20027;-69
2022/09/06 11:48:48;;;;;;;0.00;0.00;;;;;;;31.07;41.37;101440.41;4958837;28;20041;-70
2022/09/06 11:51:39;;;;;;;0.00;0.00;;;;;;;31.75;40.90;101449.09;4959511;28;20485;-68
2022/09/06 11:54:21;;;;;;;0.00;0.00;;;;;;;32.02;38.68;101454.06;4951324;28;20576;-69
2022/09/06 11:56:54;;;;;;;0.00;0.00;;;;;;;32.13;40.69;101447.59;4957078;28;20031;-70
2022/09/06 11:59:19;;;;;;;;;;;;;;;32.38;38.46;101449.16;4971763;28;20022;-70